Time;durP1;ratioP1;P1;durP2;ratioP2;P2;SDS_P1;SDS_P2;PMS_P1;PMS_P2;Temp;Humidity;BMP_temperature;BMP_pressure;BME280_temperature;BME280_humidity;BME280_pressure;Samples;Min_cycle;Max_cycle;Signal;HPM_P1;HPM_P2
2022/09/27 00:00:01;;;;;;;0.75;0.75;;;;;;;15.10;81.81;92610.72;5089988;28;20519;-33
2022/09/27 00:02:27;;;;;;;0.85;0.85;;;;;;;15.19;81.51;92614.75;5089528;28;20031;-33
2022/09/27 00:04:52;;;;;;;0.35;0.35;;;;;;;15.19;81.35;92604.34;5089882;28;20024;-35
2022/09/27 00:07:18;;;;;;;1.17;1.17;;;;;;;15.30;80.89;92599.41;5090164;28;20396;-35
2022/09/27 00:09:43;;;;;;;0.40;0.40;;;;;;;15.25;81.06;92594.91;5088543;28;20424;-35
2022/09/27 00:12:09;;;;;;;0.75;0.75;;;;;;;15.21;81.40;92606.53;5089009;28;20016;-35
2022/09/27 00:14:34;;;;;;;0.30;0.30;;;;;;;15.26;81.41;92601.94;5089762;28;20144;-35
2022/09/27 00:17:00;;;;;;;0.85;0.85;;;;;;;15.20;80.88;92591.19;5089274;28;20028;-33
2022/09/27 00:19:25;;;;;;;1.00;0.90;;;;;;;15.17;81.99;92587.53;5089223;28;20025;-33
2022/09/27 00:21:51;;;;;;;0.90;0.82;;;;;;;15.09;82.15;92589.78;5089689;28;20031;-35
2022/09/27 00:24:19;;;;;;;1.23;1.17;;;;;;;15.11;81.74;92578.81;5089303;28;20106;-35
2022/09/27 00:26:45;;;;;;;0.25;0.25;;;;;;;15.06;82.39;92579.88;5088914;28;20628;-35
2022/09/27 00:29:12;;;;;;;1.33;1.27;;;;;;;15.05;82.28;92581.19;5089600;28;20020;-35
2022/09/27 00:31:38;;;;;;;0.50;0.50;;;;;;;15.00;83.06;92582.28;5089522;28;20112;-35
2022/09/27 00:34:05;;;;;;;0.45;0.45;;;;;;;15.05;82.94;92581.19;5089249;28;20028;-35
2022/09/27 00:36:31;;;;;;;1.02;1.02;;;;;;;15.09;82.61;92589.78;5089214;28;20031;-35
2022/09/27 00:38:58;;;;;;;0.63;0.63;;;;;;;15.05;82.19;92578.41;5089206;28;20091;-35
2022/09/27 00:41:33;;;;;;;0.95;0.95;;;;;;;15.10;82.34;92579.41;5088210;28;20061;-35
2022/09/27 00:44:03;;;;;;;0.40;0.40;;;;;;;15.15;81.95;92576.28;5093271;28;20078;-35
2022/09/27 00:46:41;;;;;;;0.55;0.55;;;;;;;15.14;81.49;92579.66;5092870;28;20024;-35
2022/09/27 00:49:15;;;;;;;0.47;0.47;;;;;;;15.08;82.03;92570.94;5072748;28;20082;-35
2022/09/27 00:51:42;;;;;;;1.08;1.08;;;;;;;15.07;82.64;92589.66;5093199;28;20427;-35
2022/09/27 00:54:11;;;;;;;0.73;0.73;;;;;;;15.18;81.97;92591.75;5092786;28;20560;-35
2022/09/27 00:56:37;;;;;;;0.50;0.50;;;;;;;15.16;82.17;92594.41;5092727;28;20026;-33
2022/09/27 00:59:34;;;;;;;1.20;1.20;;;;;;;15.24;81.02;92588.66;5092957;28;20032;-33
2022/09/27 01:02:02;;;;;;;0.50;0.50;;;;;;;15.18;81.74;92588.97;5089063;28;20084;-35
2022/09/27 01:04:29;;;;;;;0.45;0.45;;;;;;;15.15;81.96;92600.59;5074294;28;20038;-35
2022/09/27 01:06:55;;;;;;;1.63;1.52;;;;;;;15.06;82.72;92593.78;5092330;28;20523;-35
2022/09/27 01:09:21;;;;;;;0.30;0.30;;;;;;;15.13;82.93;92606.03;5074704;28;20062;-35
2022/09/27 01:11:53;;;;;;;0.85;0.85;;;;;;;15.05;83.47;92605.50;5074581;28;20024;-35
2022/09/27 01:14:43;;;;;;;0.75;0.65;;;;;;;15.20;82.39;92591.88;5066727;28;20050;-35
2022/09/27 01:17:20;;;;;;;0.70;0.70;;;;;;;15.02;83.34;92590.75;5091230;28;20020;-34
2022/09/27 01:20:07;;;;;;;0.65;0.65;;;;;;;15.10;83.57;92588.47;5092384;28;20016;-34
2022/09/27 01:22:36;;;;;;;0.52;0.52;;;;;;;15.11;83.43;92584.38;5090573;28;20023;-35
2022/09/27 01:25:26;;;;;;;0.50;0.50;;;;;;;15.16;83.30;92582.56;5073828;28;20032;-35
2022/09/27 01:28:31;;;;;;;0.45;0.45;;;;;;;15.23;83.20;92572.53;5091902;28;20062;-35
2022/09/27 01:31:04;;;;;;;0.47;0.47;;;;;;;15.19;82.87;92567.47;5089292;28;20028;-35
2022/09/27 01:33:39;;;;;;;2.45;1.00;;;;;;;14.91;83.65;92566.41;5074271;28;20517;-35
2022/09/27 01:36:10;;;;;;;1.23;1.20;;;;;;;14.74;84.76;92569.47;5091910;28;20114;-35
2022/09/27 01:38:42;;;;;;;0.52;0.52;;;;;;;14.70;85.84;92565.72;5091109;28;20032;-34
2022/09/27 01:41:11;;;;;;;0.43;0.43;;;;;;;14.77;85.38;92562.00;5091779;28;20023;-35
2022/09/27 01:44:04;;;;;;;0.30;0.30;;;;;;;14.85;84.76;92557.69;5092060;28;20035;-34
2022/09/27 01:46:47;;;;;;;1.48;1.38;;;;;;;14.90;84.80;92567.03;5089055;28;20065;-35
2022/09/27 01:49:22;;;;;;;1.55;1.48;;;;;;;14.88;85.49;92552.97;5073494;28;20055;-34
2022/09/27 01:51:51;;;;;;;1.10;1.10;;;;;;;14.94;85.15;92548.53;5074069;28;20505;-34
2022/09/27 01:54:23;;;;;;;0.65;0.65;;;;;;;14.92;85.34;92544.91;5091122;28;20407;-35
2022/09/27 01:56:54;;;;;;;0.90;0.90;;;;;;;14.80;86.10;92542.06;5069988;28;20020;-35
2022/09/27 01:59:28;;;;;;;0.47;0.47;;;;;;;14.73;86.35;92550.63;5088954;28;20019;-34
2022/09/27 02:01:58;;;;;;;0.50;0.50;;;;;;;14.72;85.72;92561.03;5089535;28;20039;-34
2022/09/27 02:04:26;;;;;;;1.50;0.73;;;;;;;14.74;85.32;92543.75;5073881;28;20020;-34
2022/09/27 02:07:12;;;;;;;5.43;1.60;;;;;;;14.85;85.33;92543.06;5091298;28;20016;-35
2022/09/27 02:09:44;;;;;;;0.40;0.40;;;;;;;14.81;85.32;92543.53;5073132;28;20411;-34
2022/09/27 02:12:13;;;;;;;0.20;0.20;;;;;;;14.74;86.20;92547.25;5073724;28;20034;-35
2022/09/27 02:14:46;;;;;;;;;;;;;;;14.74;86.88;92544.47;5073852;28;20077;-34
2022/09/27 02:17:38;;;;;;;0.82;0.82;;;;;;;14.83;86.18;92552.00;5072996;28;19922;-35
2022/09/27 02:20:29;;;;;;;0.40;0.40;;;;;;;14.70;86.52;92538.66;5078899;28;20047;-34
2022/09/27 02:23:18;;;;;;;1.77;1.50;;;;;;;14.48;88.29;92540.00;5073166;28;20662;-34
2022/09/27 02:25:56;;;;;;;1.67;0.98;;;;;;;14.54;88.56;92542.44;5073221;28;20028;-35
2022/09/27 02:28:32;;;;;;;0.75;0.73;;;;;;;14.62;88.32;92526.31;5070683;28;20045;-34
2022/09/27 02:30:57;;;;;;;0.25;0.25;;;;;;;14.67;87.99;92531.50;5091019;28;20438;-35
2022/09/27 02:33:39;;;;;;;0.50;0.50;;;;;;;14.62;88.00;92532.56;5091606;28;20016;-35
2022/09/27 02:36:05;;;;;;;1.40;0.80;;;;;;;14.63;88.22;92525.69;5070288;28;20405;-35
2022/09/27 02:38:31;;;;;;;0.85;0.82;;;;;;;14.70;87.06;92522.00;5090903;28;20027;-35
2022/09/27 02:40:56;;;;;;;1.95;1.80;;;;;;;14.72;87.16;92536.00;5072870;28;20118;-35
2022/09/27 02:43:23;;;;;;;0.30;0.30;;;;;;;14.84;86.56;92519.38;5090660;28;20519;-35
2022/09/27 02:46:24;;;;;;;0.85;0.65;;;;;;;14.83;86.82;92509.59;5072926;28;20027;-35
2022/09/27 02:49:19;;;;;;;1.15;1.15;;;;;;;14.85;87.00;92499.34;5062619;28;20028;-35
2022/09/27 02:52:03;;;;;;;0.35;0.35;;;;;;;14.83;87.00;92488.09;5073201;28;20078;-34
2022/09/27 02:54:34;;;;;;;1.38;1.30;;;;;;;14.91;86.32;92479.53;5089919;28;20495;-35
2022/09/27 02:57:27;;;;;;;0.85;0.85;;;;;;;14.90;86.24;92462.13;5072303;28;20035;-35
2022/09/27 02:59:58;;;;;;;0.75;0.70;;;;;;;14.88;86.27;92464.78;5069070;28;20576;-34
2022/09/27 03:02:48;;;;;;;0.75;0.75;;;;;;;14.80;87.02;92460.75;5090363;28;20031;-35
2022/09/27 03:05:20;;;;;;;0.32;0.32;;;;;;;14.58;88.28;92448.25;5089742;28;20028;-34
2022/09/27 03:07:46;;;;;;;0.70;0.70;;;;;;;14.50;88.93;92447.75;5060011;28;20580;-34
2022/09/27 03:10:21;;;;;;;1.48;1.38;;;;;;;14.51;88.90;92455.47;5065419;28;20069;-34
2022/09/27 03:12:47;;;;;;;0.57;0.57;;;;;;;14.57;89.13;92450.31;5088596;28;20020;-34
2022/09/27 03:15:12;;;;;;;0.47;0.47;;;;;;;14.58;88.52;92453.81;5090022;28;20016;-34
2022/09/27 03:17:38;;;;;;;0.52;0.52;;;;;;;14.30;89.31;92430.53;5090037;28;20028;-34
2022/09/27 03:20:04;;;;;;;2.72;0.50;;;;;;;14.59;88.64;92458.78;5090282;28;20031;-34
2022/09/27 03:22:29;;;;;;;0.70;0.70;;;;;;;14.61;88.23;92455.41;5090451;28;20039;-34
2022/09/27 03:24:55;;;;;;;1.02;1.02;;;;;;;14.50;88.79;92464.41;5090022;28;20031;-34
2022/09/27 03:27:20;;;;;;;0.40;0.40;;;;;;;14.34;90.35;92456.50;5089868;28;20044;-34
2022/09/27 03:29:46;;;;;;;0.93;0.93;;;;;;;14.25;91.77;92456.56;5090051;28;20152;-34
2022/09/27 03:32:11;;;;;;;0.75;0.75;;;;;;;14.36;90.91;92439.22;5090330;28;20031;-34
2022/09/27 03:34:37;;;;;;;0.30;0.30;;;;;;;14.16;91.81;92437.94;5089936;28;20024;-34
2022/09/27 03:37:02;;;;;;;0.60;0.60;;;;;;;14.18;92.79;92435.28;5090288;28;20019;-34
2022/09/27 03:39:28;;;;;;;1.00;1.00;;;;;;;14.24;92.61;92432.88;5090014;28;20099;-34
2022/09/27 03:41:53;;;;;;;0.65;0.63;;;;;;;14.36;91.91;92426.09;5089314;28;20060;-35
2022/09/27 03:44:18;;;;;;;0.52;0.52;;;;;;;14.31;91.73;92420.88;5090531;28;20412;-34
2022/09/27 03:46:44;;;;;;;0.20;0.20;;;;;;;14.35;91.47;92419.09;5089762;28;20407;-35
2022/09/27 03:49:09;;;;;;;0.35;0.35;;;;;;;14.41;91.11;92425.03;5090455;28;20098;-35
2022/09/27 03:51:35;;;;;;;0.55;0.55;;;;;;;14.42;90.82;92415.34;5089940;28;20027;-34
2022/09/27 03:54:00;;;;;;;0.43;0.43;;;;;;;14.33;91.19;92407.13;5089896;28;20383;-34
2022/09/27 03:56:26;;;;;;;1.20;1.20;;;;;;;14.18;92.16;92408.25;5089668;28;20019;-35
2022/09/27 03:58:51;;;;;;;1.25;1.17;;;;;;;14.24;92.14;92413.47;5089891;28;20043;-34
2022/09/27 04:01:17;;;;;;;1.02;0.75;;;;;;;14.11;92.96;92419.56;5089544;28;20073;-34
2022/09/27 04:03:43;;;;;;;0.80;0.80;;;;;;;14.18;93.05;92424.19;5089612;28;20074;-34
2022/09/27 04:06:08;;;;;;;1.20;0.93;;;;;;;14.14;93.06;92432.97;5089574;28;20213;-34
2022/09/27 04:08:33;;;;;;;0.65;0.65;;;;;;;14.14;93.21;92435.03;5090092;28;20027;-34
2022/09/27 04:10:59;;;;;;;0.55;0.55;;;;;;;14.00;93.22;92409.84;5089563;28;20411;-34
2022/09/27 04:13:24;;;;;;;0.60;0.60;;;;;;;14.17;93.37;92422.72;5089523;28;20057;-34
2022/09/27 04:15:50;;;;;;;1.25;1.20;;;;;;;14.13;93.49;92425.22;5089833;28;20027;-34
2022/09/27 04:18:16;;;;;;;0.30;0.30;;;;;;;14.16;93.66;92413.66;5092725;28;20032;-34
2022/09/27 04:20:42;;;;;;;0.95;0.95;;;;;;;14.24;93.19;92419.75;5093208;28;20020;-35
2022/09/27 04:23:07;;;;;;;0.98;0.98;;;;;;;14.31;92.29;92418.81;5093685;28;20095;-34
2022/09/27 04:25:32;;;;;;;0.77;0.77;;;;;;;14.37;92.13;92419.22;5093539;28;20514;-34
2022/09/27 04:27:59;;;;;;;3.50;2.05;;;;;;;14.43;91.58;92416.81;5093061;28;20447;-34
2022/09/27 04:30:25;;;;;;;1.58;1.48;;;;;;;14.45;91.39;92402.31;5093295;28;20016;-34
2022/09/27 04:32:51;;;;;;;1.00;1.00;;;;;;;14.43;91.17;92402.94;5093839;28;20020;-35
2022/09/27 04:38:00;;;;;;;0.77;0.77;;;;;;;14.44;91.40;92401.59;5093287;28;20046;-35
2022/09/27 04:40:26;;;;;;;1.73;1.63;;;;;;;14.52;91.27;92393.06;5093233;28;20012;-34
2022/09/27 04:42:51;;;;;;;4.10;1.38;;;;;;;14.48;91.42;92384.47;5093432;28;20016;-34
2022/09/27 04:45:18;;;;;;;0.40;0.40;;;;;;;14.49;91.21;92374.81;5092797;28;20043;-34
2022/09/27 04:47:44;;;;;;;2.20;2.10;;;;;;;14.63;90.88;92383.28;5093127;28;20459;-34
2022/09/27 04:50:11;;;;;;;0.70;0.70;;;;;;;14.50;90.55;92364.41;5093143;28;20020;-35
2022/09/27 04:52:36;;;;;;;0.60;0.60;;;;;;;14.56;91.02;92378.69;5093051;28;20046;-34
2022/09/27 04:55:02;;;;;;;0.85;0.85;;;;;;;14.60;91.79;92390.03;5093123;28;20484;-34
2022/09/27 04:57:28;;;;;;;0.60;0.60;;;;;;;14.68;91.88;92387.78;5092878;28;20031;-35
2022/09/27 05:01:38;;;;;;;1.10;1.00;;;;;;;14.86;92.04;92406.28;5051663;27;1623981;-34
2022/09/27 05:04:04;;;;;;;0.95;0.95;;;;;;;14.81;91.72;92399.03;5081051;28;20032;-34
2022/09/27 05:06:29;;;;;;;1.10;1.02;;;;;;;14.78;90.93;92405.06;5074674;28;20402;-34
2022/09/27 05:08:55;;;;;;;1.30;1.20;;;;;;;14.74;91.67;92405.56;5076900;28;20373;-34
2022/09/27 05:11:21;;;;;;;0.43;0.43;;;;;;;14.60;92.40;92423.38;5076050;28;20392;-34
2022/09/27 05:13:46;;;;;;;0.43;0.43;;;;;;;14.44;93.71;92420.31;5079956;28;20086;-34
2022/09/27 05:16:12;;;;;;;0.63;0.63;;;;;;;14.46;94.43;92423.22;5077320;28;20480;-34
2022/09/27 05:18:37;;;;;;;0.82;0.82;;;;;;;14.40;95.13;92428.41;5075261;28;20031;-34
2022/09/27 05:21:03;;;;;;;0.65;0.65;;;;;;;14.30;95.68;92425.69;5077550;28;20025;-34
2022/09/27 05:23:28;;;;;;;0.63;0.63;;;;;;;14.16;96.45;92407.41;5085767;28;20028;-34
2022/09/27 05:25:55;;;;;;;1.58;1.48;;;;;;;14.27;96.58;92418.53;5074670;28;20417;-34
2022/09/27 05:28:21;;;;;;;2.22;2.10;;;;;;;14.33;96.66;92423.78;5081140;28;20086;-34
2022/09/27 05:30:46;;;;;;;0.98;0.98;;;;;;;14.40;96.12;92426.34;5081032;28;20025;-34
2022/09/27 05:33:12;;;;;;;0.95;0.95;;;;;;;14.32;96.65;92423.06;5076626;28;20028;-34
2022/09/27 05:35:41;;;;;;;0.85;0.85;;;;;;;14.36;96.96;92417.03;5083564;28;20020;-34
2022/09/27 05:38:06;;;;;;;;;;;;;;;14.39;96.36;92408.22;5083765;28;20163;-34
2022/09/27 05:40:32;;;;;;;0.43;0.43;;;;;;;14.32;96.88;92400.84;5081207;28;20015;-34
2022/09/27 05:42:57;;;;;;;1.55;1.40;;;;;;;14.43;96.61;92410.53;5078627;28;20398;-34
2022/09/27 05:45:24;;;;;;;1.38;1.27;;;;;;;14.42;96.57;92406.31;5080616;28;20109;-34
2022/09/27 05:47:56;;;;;;;0.90;0.50;;;;;;;14.41;96.22;92399.28;5081269;28;20029;-34
2022/09/27 05:50:26;;;;;;;1.65;1.55;;;;;;;14.42;96.99;92400.75;5077107;28;20017;-34
2022/09/27 05:52:52;;;;;;;0.65;0.65;;;;;;;14.42;97.01;92401.47;5069322;28;20033;-34
2022/09/27 05:55:18;;;;;;;1.40;1.33;;;;;;;14.38;97.12;92412.31;5080064;28;20016;-34
2022/09/27 05:58:15;;;;;;;1.05;0.70;;;;;;;14.41;97.56;92408.34;5073796;28;20027;-34
2022/09/27 06:00:42;;;;;;;0.40;0.40;;;;;;;14.46;97.29;92416.94;5080444;28;20085;-34
2022/09/27 06:03:08;;;;;;;1.48;1.45;;;;;;;14.46;97.31;92416.94;5062634;28;20032;-34
2022/09/27 06:05:35;;;;;;;0.45;0.45;;;;;;;14.44;97.35;92420.31;5061432;28;20027;-34
2022/09/27 06:08:03;;;;;;;0.98;0.98;;;;;;;14.43;97.45;92421.63;5082102;28;20028;-34
2022/09/27 06:10:30;;;;;;;0.47;0.47;;;;;;;14.53;97.95;92416.72;5077835;28;20100;-34
2022/09/27 06:13:04;;;;;;;0.90;0.90;;;;;;;14.72;97.45;92424.16;5058405;28;20559;-34
2022/09/27 06:15:31;;;;;;;1.08;1.08;;;;;;;14.79;96.62;92418.34;5065908;28;20044;-34
2022/09/27 06:18:01;;;;;;;0.60;0.60;;;;;;;14.90;95.75;92417.66;5058570;28;20071;-34
2022/09/27 06:20:26;;;;;;;0.57;0.57;;;;;;;14.92;94.56;92412.22;5060275;28;20476;-34
2022/09/27 06:22:52;;;;;;;1.38;1.27;;;;;;;15.01;94.84;92418.97;5062880;28;20048;-34
2022/09/27 06:25:19;;;;;;;0.30;0.30;;;;;;;15.14;94.53;92419.13;5059679;28;20021;-34
2022/09/27 06:27:44;;;;;;;1.70;0.73;;;;;;;15.27;94.24;92428.91;5060276;28;20021;-34
2022/09/27 06:30:11;;;;;;;0.63;0.63;;;;;;;15.36;93.83;92439.22;5062206;28;20024;-34
2022/09/27 06:32:37;;;;;;;1.08;1.08;;;;;;;15.45;93.18;92437.66;5058601;28;20033;-34
2022/09/27 06:35:04;;;;;;;1.40;1.15;;;;;;;15.57;92.66;92441.19;5059321;28;20139;-34
2022/09/27 06:37:30;;;;;;;1.70;1.58;;;;;;;15.54;92.17;92434.78;5067178;28;20024;-34
2022/09/27 06:39:56;;;;;;;2.55;2.25;;;;;;;15.61;90.96;92405.97;5061774;28;20021;-34
2022/09/27 06:42:21;;;;;;;2.05;1.67;;;;;;;15.89;89.42;92415.25;5058554;28;20056;-34
2022/09/27 06:44:48;;;;;;;1.10;1.10;;;;;;;15.86;90.25;92408.09;5064750;28;20024;-34
2022/09/27 06:47:15;;;;;;;0.60;0.60;;;;;;;15.90;90.68;92411.09;5062212;28;20032;-34
2022/09/27 06:49:41;;;;;;;0.82;0.82;;;;;;;15.94;90.73;92405.78;5069726;28;20021;-34
2022/09/27 06:52:06;;;;;;;2.20;1.65;;;;;;;16.09;89.96;92421.25;5069800;28;20032;-34
2022/09/27 06:54:32;;;;;;;0.50;0.50;;;;;;;16.09;90.09;92421.25;5062712;28;20112;-34
2022/09/27 06:56:57;;;;;;;1.20;1.20;;;;;;;16.06;90.18;92428.75;5062091;28;20424;-34
2022/09/27 07:02:07;;;;;;;0.82;0.82;;;;;;;16.10;89.00;92428.97;5062207;28;20612;-34
2022/09/27 07:04:32;;;;;;;0.82;0.68;;;;;;;16.11;88.37;92430.44;5066404;28;20115;-34
2022/09/27 07:06:58;;;;;;;0.85;0.85;;;;;;;16.15;89.22;92432.72;5059195;28;20500;-34
2022/09/27 07:09:24;;;;;;;5.53;5.05;;;;;;;16.18;88.89;92434.28;5067598;28;20024;-34
2022/09/27 07:11:49;;;;;;;5.47;1.58;;;;;;;16.30;87.54;92430.13;5061299;28;20506;-34
2022/09/27 07:14:16;;;;;;;1.40;1.35;;;;;;;16.35;86.46;92426.22;5056902;28;20074;-34
2022/09/27 07:16:42;;;;;;;5.03;0.65;;;;;;;16.38;85.06;92430.59;5056349;28;20055;-34
2022/09/27 07:19:10;;;;;;;1.23;0.98;;;;;;;16.28;87.15;92432.81;5069615;28;20032;-34
2022/09/27 07:21:36;;;;;;;0.68;0.68;;;;;;;16.28;88.15;92430.03;5064567;28;20516;-34
2022/09/27 07:24:01;;;;;;;1.42;1.17;;;;;;;16.19;89.09;92433.69;5062824;28;20055;-34
2022/09/27 07:26:27;;;;;;;1.95;1.80;;;;;;;16.29;89.45;92422.38;5064206;28;20036;-34
2022/09/27 07:28:52;;;;;;;1.35;1.20;;;;;;;16.22;91.53;92424.09;5057999;28;20082;-34
2022/09/27 07:31:18;;;;;;;0.88;0.88;;;;;;;16.28;91.56;92413.31;5060441;28;20582;-34
2022/09/27 07:33:44;;;;;;;4.68;1.92;;;;;;;16.20;91.99;92396.13;5054494;28;20496;-34
2022/09/27 07:36:10;;;;;;;1.20;0.82;;;;;;;16.20;92.77;92396.13;5060617;28;20086;-34
2022/09/27 07:38:36;;;;;;;2.17;0.90;;;;;;;16.31;92.81;92398.16;5060080;28;20036;-34
2022/09/27 07:41:11;;;;;;;0.35;0.35;;;;;;;16.42;93.07;92407.78;5070417;28;20111;-34
2022/09/27 07:43:36;;;;;;;1.58;1.42;;;;;;;16.45;91.69;92404.53;5063194;28;20033;-34
2022/09/27 07:46:02;;;;;;;1.02;1.00;;;;;;;16.49;91.09;92412.38;5045493;28;20020;-34
2022/09/27 07:48:27;;;;;;;2.05;0.90;;;;;;;16.53;90.74;92398.69;5060520;28;20082;-34
2022/09/27 07:50:53;;;;;;;0.40;0.40;;;;;;;16.60;90.69;92386.53;5063244;28;20021;-34
2022/09/27 07:53:18;;;;;;;0.38;0.38;;;;;;;16.57;90.97;92388.50;5065231;28;20103;-34
2022/09/27 07:55:49;;;;;;;0.70;0.70;;;;;;;16.49;91.50;92378.94;5061801;28;20040;-34
2022/09/27 07:58:15;;;;;;;2.00;1.58;;;;;;;16.55;91.00;92374.44;5043312;28;20024;-34
2022/09/27 08:00:40;;;;;;;0.40;0.40;;;;;;;16.53;90.96;92362.47;5058411;28;20037;-34
2022/09/27 08:03:08;;;;;;;0.85;0.85;;;;;;;16.61;90.45;92388.72;5062579;28;20027;-34
2022/09/27 08:05:35;;;;;;;0.83;0.83;;;;;;;16.71;91.56;92396.91;5042781;28;20029;-34
2022/09/27 08:08:01;;;;;;;1.58;1.48;;;;;;;16.68;91.77;92401.66;5068870;28;20462;-34
2022/09/27 08:10:30;;;;;;;1.23;1.20;;;;;;;16.55;91.84;92405.09;5066464;28;20032;-34
2022/09/27 08:12:56;;;;;;;;;;;;;;;16.45;92.00;92407.31;5060191;28;20060;-34
2022/09/27 08:15:21;;;;;;;0.43;0.43;;;;;;;16.43;91.85;92407.19;5060230;28;19912;-34
2022/09/27 08:17:47;;;;;;;0.30;0.30;;;;;;;16.34;93.21;92412.91;5046982;28;20089;-34
2022/09/27 08:20:13;;;;;;;0.82;0.82;;;;;;;16.43;91.85;92412.78;5064818;28;20025;-34
2022/09/27 08:22:42;;;;;;;1.00;1.00;;;;;;;16.53;92.43;92404.25;5061121;28;20469;-34
2022/09/27 08:25:08;;;;;;;;;;;;;;;16.66;93.82;92400.81;5058810;28;20675;-34
2022/09/27 08:27:33;;;;;;;1.45;1.35;;;;;;;16.99;92.90;92409.59;5068653;28;19912;-34
2022/09/27 08:29:59;;;;;;;0.82;0.82;;;;;;;17.31;90.65;92399.41;5060969;28;20066;-34
2022/09/27 08:32:26;;;;;;;0.77;0.55;;;;;;;17.72;88.05;92379.91;5066944;28;20040;-34
2022/09/27 08:34:52;;;;;;;1.60;1.48;;;;;;;18.09;85.01;92386.69;5064019;28;20032;-34
2022/09/27 08:37:17;;;;;;;1.20;1.15;;;;;;;18.45;83.91;92390.56;5063413;28;20028;-34
2022/09/27 08:39:43;;;;;;;0.20;0.20;;;;;;;18.68;81.21;92389.56;5061918;28;20032;-34
2022/09/27 08:42:11;;;;;;;0.35;0.35;;;;;;;18.90;80.26;92376.63;5060721;28;20028;-34
2022/09/27 08:44:45;;;;;;;0.70;0.70;;;;;;;18.95;80.52;92383.81;5060060;28;20386;-34
2022/09/27 08:47:26;;;;;;;0.65;0.65;;;;;;;19.06;80.56;92368.94;5060872;28;20033;-34
2022/09/27 08:49:59;;;;;;;1.75;1.13;;;;;;;19.34;80.68;92342.25;5065494;28;20110;-34
2022/09/27 08:52:36;;;;;;;0.38;0.38;;;;;;;19.96;78.90;92346.31;5063667;28;20030;-34
2022/09/27 08:55:05;;;;;;;1.45;1.35;;;;;;;20.23;76.63;92357.28;5062149;28;20025;-34
2022/09/27 08:57:31;;;;;;;0.75;0.75;;;;;;;19.96;74.60;92343.50;5063194;28;20032;-34
2022/09/27 09:00:05;;;;;;;0.65;0.65;;;;;;;19.79;75.40;92341.41;5056222;28;20555;-34
2022/09/27 09:02:30;;;;;;;0.82;0.82;;;;;;;19.57;76.30;92335.56;5061512;28;20033;-34
2022/09/27 09:05:01;;;;;;;0.30;0.30;;;;;;;19.16;77.79;92330.25;5059016;28;20033;-34
2022/09/27 09:07:33;;;;;;;0.30;0.30;;;;;;;19.15;74.62;92344.84;5058807;28;20107;-34
2022/09/27 09:12:45;;;;;;;1.35;1.23;;;;;;;19.07;78.01;92348.03;5063772;28;20048;-34
2022/09/27 09:13:17;;;;;;;0.32;0.32;;;;;;;18.77;79.75;92349.44;5059083;28;20124;-34
2022/09/27 09:15:58;;;;;;;0.75;0.75;;;;;;;18.62;80.87;92362.03;5058268;28;20068;-34
2022/09/27 09:18:33;;;;;;;1.42;1.33;;;;;;;18.38;80.42;92360.88;5058315;28;20024;-34
2022/09/27 09:21:15;;;;;;;3.00;1.38;;;;;;;18.33;81.78;92353.63;5042863;28;20503;-34
2022/09/27 09:24:15;;;;;;;0.85;0.85;;;;;;;18.39;82.00;92344.81;5062919;28;20028;-34
2022/09/27 09:26:43;;;;;;;2.70;0.88;;;;;;;18.57;81.58;92331.72;5067936;28;20424;-34
2022/09/27 09:29:33;;;;;;;0.57;0.47;;;;;;;18.68;80.64;92333.63;5061653;28;20028;-34
2022/09/27 09:32:46;;;;;;;1.52;1.35;;;;;;;19.10;79.94;92335.56;5057659;28;20028;-34
2022/09/27 09:35:17;;;;;;;1.33;1.23;;;;;;;19.61;81.20;92353.25;4952367;28;20042;-34
2022/09/27 09:38:13;;;;;;;0.82;0.82;;;;;;;20.33;78.18;92352.09;5030517;28;20071;-34
2022/09/27 09:40:46;;;;;;;2.88;0.98;;;;;;;21.20;73.33;92361.13;5039622;28;20045;-34
2022/09/27 09:43:25;;;;;;;0.45;0.45;;;;;;;21.60;69.58;92365.41;5066133;28;20501;-34
2022/09/27 09:45:56;;;;;;;0.25;0.25;;;;;;;22.07;67.85;92362.19;5042490;28;20036;-34
2022/09/27 09:48:38;;;;;;;0.77;0.70;;;;;;;22.61;63.51;92347.13;5046835;28;20029;-34
2022/09/27 09:51:06;;;;;;;0.70;0.70;;;;;;;22.09;63.20;92343.28;5045457;28;20484;-34
2022/09/27 09:53:32;;;;;;;2.13;0.93;;;;;;;21.90;64.82;92324.34;5062221;28;20489;-34
2022/09/27 09:56:17;;;;;;;0.35;0.35;;;;;;;22.63;63.73;92330.34;5064461;28;20042;-34
2022/09/27 09:58:56;;;;;;;0.50;0.50;;;;;;;24.00;60.02;92326.63;5053689;28;20020;-35
2022/09/27 10:01:35;;;;;;;;;;;;;;;25.54;54.42;92333.91;5048086;28;20037;-35
2022/09/27 10:04:01;;;;;;;2.75;0.80;;;;;;;25.71;52.42;92318.69;5033151;28;19920;-34
2022/09/27 10:06:28;;;;;;;0.40;0.40;;;;;;;25.99;50.18;92329.88;5038542;28;20037;-34
2022/09/27 10:08:54;;;;;;;0.40;0.40;;;;;;;25.12;49.36;92327.31;5040967;28;20405;-34
2022/09/27 10:11:31;;;;;;;0.15;0.15;;;;;;;24.57;51.94;92328.09;5040240;28;20025;-34
2022/09/27 10:13:56;;;;;;;0.40;0.40;;;;;;;24.69;51.71;92319.91;5046709;28;20029;-34
2022/09/27 10:16:23;;;;;;;0.47;0.47;;;;;;;25.62;52.09;92313.56;5040544;28;20025;-34
2022/09/27 10:18:51;;;;;;;0.22;0.22;;;;;;;26.67;50.10;92313.41;5040559;28;20101;-35
2022/09/27 10:21:26;;;;;;;0.30;0.30;;;;;;;27.28;43.81;92312.97;5046052;28;20029;-34
2022/09/27 10:24:12;;;;;;;0.52;0.52;;;;;;;26.29;46.48;92313.47;5036490;28;20025;-34
2022/09/27 10:26:39;;;;;;;0.63;0.63;;;;;;;25.86;47.17;92299.91;5045787;28;20033;-35
2022/09/27 10:29:23;;;;;;;0.30;0.30;;;;;;;25.26;50.56;92305.72;5047705;28;20082;-34
2022/09/27 10:31:49;;;;;;;0.85;0.85;;;;;;;24.48;51.34;92301.06;5041852;28;20033;-34
2022/09/27 10:34:36;;;;;;;0.50;0.50;;;;;;;24.12;51.30;92305.78;5036112;28;20053;-35
2022/09/27 10:37:06;;;;;;;0.20;0.20;;;;;;;24.06;54.67;92283.81;5039475;28;20059;-34
2022/09/27 10:39:32;;;;;;;0.60;0.60;;;;;;;23.57;55.07;92283.84;5041414;28;20394;-34
2022/09/27 10:41:58;;;;;;;0.10;0.10;;;;;;;23.56;54.06;92285.25;5041933;28;20025;-35
2022/09/27 10:44:31;;;;;;;1.08;1.00;;;;;;;23.21;54.91;92280.72;5043691;28;20034;-34
2022/09/27 10:47:06;;;;;;;0.55;0.55;;;;;;;22.73;57.54;92290.53;5042298;28;20033;-34
2022/09/27 10:49:34;;;;;;;0.65;0.45;;;;;;;22.56;57.13;92292.81;5035836;28;20040;-34
2022/09/27 10:52:05;;;;;;;0.98;0.95;;;;;;;22.56;58.00;92287.19;5040807;28;20033;-34
2022/09/27 10:54:35;;;;;;;0.73;0.73;;;;;;;22.54;57.87;92289.22;5042209;28;20033;-34
2022/09/27 10:57:13;;;;;;;0.60;0.60;;;;;;;22.66;58.61;92294.53;5041133;28;20099;-34
2022/09/27 10:59:40;;;;;;;0.43;0.43;;;;;;;22.76;57.45;92287.09;5043576;28;20033;-34
2022/09/27 11:02:19;;;;;;;0.52;0.52;;;;;;;23.01;57.43;92269.59;5027262;28;20520;-35
2022/09/27 11:05:12;;;;;;;0.30;0.30;;;;;;;23.06;54.74;92290.13;5034726;28;20060;-34
2022/09/27 11:07:55;;;;;;;9.65;1.88;;;;;;;22.78;54.15;92290.00;5040822;28;20029;-34
2022/09/27 11:10:30;;;;;;;0.40;0.40;;;;;;;22.67;55.15;92287.53;5041305;28;20017;-34
2022/09/27 11:13:16;;;;;;;0.20;0.20;;;;;;;22.67;55.49;92279.09;5044798;28;20075;-34
2022/09/27 11:16:06;;;;;;;0.10;0.10;;;;;;;23.67;53.53;92276.38;5041436;28;20039;-35
2022/09/27 11:18:35;;;;;;;0.13;0.13;;;;;;;23.68;50.95;92232.03;5039329;28;20411;-35
2022/09/27 11:21:07;;;;;;;0.28;0.28;;;;;;;23.99;51.56;92277.28;5023683;28;20036;-34
2022/09/27 11:23:38;;;;;;;0.28;0.28;;;;;;;23.81;51.90;92268.31;5044613;28;20037;-35
2022/09/27 11:26:26;;;;;;;0.30;0.30;;;;;;;23.99;51.84;92262.44;5044898;28;20087;-34
2022/09/27 11:29:15;;;;;;;0.55;0.55;;;;;;;24.10;52.54;92259.22;5041002;28;20055;-35
2022/09/27 11:31:52;;;;;;;0.20;0.20;;;;;;;24.28;50.17;92256.16;5019166;28;20609;-35
2022/09/27 11:34:34;;;;;;;0.35;0.35;;;;;;;24.79;52.06;92258.09;5041034;28;20036;-35
2022/09/27 11:37:18;;;;;;;0.10;0.10;;;;;;;25.15;51.36;92260.97;5023247;28;20033;-35
2022/09/27 11:40:02;;;;;;;0.30;0.30;;;;;;;25.46;49.64;92260.25;5037011;28;20071;-35
2022/09/27 11:42:49;;;;;;;0.75;0.75;;;;;;;25.40;47.44;92257.28;5036733;28;20029;-35
2022/09/27 11:45:36;;;;;;;0.30;0.30;;;;;;;25.27;48.83;92249.94;5038558;28;20025;-35
2022/09/27 11:48:26;;;;;;;0.38;0.38;;;;;;;24.63;48.85;92249.22;5038567;28;20052;-35
2022/09/27 11:51:17;;;;;;;0.63;0.47;;;;;;;24.10;50.33;92247.25;5037220;28;20029;-35
2022/09/27 11:53:42;;;;;;;4.22;0.50;;;;;;;24.22;51.71;92246.81;5037488;28;20440;-34
2022/09/27 11:56:21;;;;;;;2.70;0.98;;;;;;;24.31;52.88;92237.88;5034480;28;20044;-35
2022/09/27 11:59:02;;;;;;;1.70;0.73;;;;;;;24.83;51.26;92232.75;5022075;28;20174;-35